sensor_id;sensor_type;location;lat;lon;timestamp;pressure;altitude;pressure_sealevel;temperature;humidity
58769;BME280;44536;47.474;19.056;2023-02-19T00:00:46;100577.19;;;11.38;65.73
58769;BME280;44536;47.474;19.056;2023-02-19T00:03:57;100578.00;;;11.27;66.44
58769;BME280;44536;47.474;19.056;2023-02-19T00:07:00;100569.19;;;11.27;66.38
58769;BME280;44536;47.474;19.056;2023-02-19T00:10:02;100563.16;;;11.25;66.52
58769;BME280;44536;47.474;19.056;2023-02-19T00:13:04;100565.53;;;11.17;66.54
58769;BME280;44536;47.474;19.056;2023-02-19T00:16:12;100562.66;;;11.20;66.18
58769;BME280;44536;47.474;19.056;2023-02-19T00:19:17;100566.84;;;11.11;66.78
58769;BME280;44536;47.474;19.056;2023-02-19T00:22:20;100558.03;;;11.11;66.80
58769;BME280;44536;47.474;19.056;2023-02-19T00:25:22;100568.41;;;11.14;66.72
58769;BME280;44536;47.474;19.056;2023-02-19T00:28:25;100565.75;;;11.14;66.83
58769;BME280;44536;47.474;19.056;2023-02-19T00:31:28;100568.75;;;11.09;66.66
58769;BME280;44536;47.474;19.056;2023-02-19T00:34:34;100567.97;;;10.96;67.06
58769;BME280;44536;47.474;19.056;2023-02-19T00:37:37;100570.84;;;10.93;67.00
58769;BME280;44536;47.474;19.056;2023-02-19T00:40:39;100564.84;;;10.91;66.90
58769;BME280;44536;47.474;19.056;2023-02-19T00:43:41;100556.16;;;10.89;67.14
58769;BME280;44536;47.474;19.056;2023-02-19T00:46:46;100551.19;;;10.95;66.33
58769;BME280;44536;47.474;19.056;2023-02-19T00:49:48;100546.28;;;10.91;66.77
58769;BME280;44536;47.474;19.056;2023-02-19T00:52:51;100547.81;;;10.93;66.63
58769;BME280;44536;47.474;19.056;2023-02-19T00:55:53;100549.63;;;10.93;67.08
58769;BME280;44536;47.474;19.056;2023-02-19T00:58:56;100558.94;;;10.99;66.84
58769;BME280;44536;47.474;19.056;2023-02-19T01:01:58;100564.88;;;11.02;66.26
58769;BME280;44536;47.474;19.056;2023-02-19T01:05:00;100574.62;;;11.02;66.32
58769;BME280;44536;47.474;19.056;2023-02-19T01:08:03;100575.59;;;11.01;66.75
58769;BME280;44536;47.474;19.056;2023-02-19T01:11:06;100566.44;;;11.05;66.64
58769;BME280;44536;47.474;19.056;2023-02-19T01:14:09;100556.56;;;11.07;66.69
58769;BME280;44536;47.474;19.056;2023-02-19T01:17:12;100554.63;;;11.09;66.95
58769;BME280;44536;47.474;19.056;2023-02-19T01:20:15;100566.72;;;11.13;66.53
58769;BME280;44536;47.474;19.056;2023-02-19T01:23:17;100562.37;;;11.12;66.74
58769;BME280;44536;47.474;19.056;2023-02-19T01:26:23;100563.59;;;11.19;66.29
58769;BME280;44536;47.474;19.056;2023-02-19T01:29:26;100554.56;;;11.21;66.24
58769;BME280;44536;47.474;19.056;2023-02-19T01:32:28;100557.69;;;11.15;66.56
58769;BME280;44536;47.474;19.056;2023-02-19T01:35:31;100559.72;;;11.12;67.23
58769;BME280;44536;47.474;19.056;2023-02-19T01:38:34;100561.91;;;11.18;67.06
58769;BME280;44536;47.474;19.056;2023-02-19T01:41:39;100569.47;;;11.11;67.11
58769;BME280;44536;47.474;19.056;2023-02-19T01:47:45;100566.91;;;10.99;68.14
58769;BME280;44536;47.474;19.056;2023-02-19T01:50:52;100563.72;;;10.93;68.15
58769;BME280;44536;47.474;19.056;2023-02-19T01:53:58;100554.34;;;10.89;68.10
58769;BME280;44536;47.474;19.056;2023-02-19T01:57:06;100552.41;;;10.68;69.01
58769;BME280;44536;47.474;19.056;2023-02-19T02:00:11;100556.19;;;10.52;69.94
58769;BME280;44536;47.474;19.056;2023-02-19T02:03:15;100560.56;;;10.41;71.00
58769;BME280;44536;47.474;19.056;2023-02-19T02:06:24;100552.50;;;10.42;71.19
58769;BME280;44536;47.474;19.056;2023-02-19T02:09:28;100546.31;;;10.54;70.30
58769;BME280;44536;47.474;19.056;2023-02-19T02:12:56;100540.91;;;10.56;70.26
58769;BME280;44536;47.474;19.056;2023-02-19T02:16:19;100539.09;;;10.56;70.73
58769;BME280;44536;47.474;19.056;2023-02-19T02:22:45;100559.19;;;10.72;70.45
58769;BME280;44536;47.474;19.056;2023-02-19T02:25:58;100539.56;;;10.74;70.54
58769;BME280;44536;47.474;19.056;2023-02-19T02:32:31;100540.28;;;10.76;70.19
58769;BME280;44536;47.474;19.056;2023-02-19T02:35:46;100525.94;;;10.79;70.15
58769;BME280;44536;47.474;19.056;2023-02-19T02:38:50;100526.47;;;10.84;69.87
58769;BME280;44536;47.474;19.056;2023-02-19T02:41:58;100530.47;;;10.89;69.70
58769;BME280;44536;47.474;19.056;2023-02-19T02:45:25;100529.00;;;10.85;69.96
58769;BME280;44536;47.474;19.056;2023-02-19T02:51:46;100532.84;;;10.81;70.16
58769;BME280;44536;47.474;19.056;2023-02-19T02:54:51;100542.31;;;10.73;71.12
58769;BME280;44536;47.474;19.056;2023-02-19T02:58:06;100539.00;;;10.82;70.44
58769;BME280;44536;47.474;19.056;2023-02-19T03:01:23;100538.03;;;10.83;71.45
58769;BME280;44536;47.474;19.056;2023-02-19T03:08:33;100552.84;;;10.61;72.77
58769;BME280;44536;47.474;19.056;2023-02-19T03:11:40;100549.19;;;10.51;73.84
58769;BME280;44536;47.474;19.056;2023-02-19T03:15:07;100542.59;;;10.57;74.38
58769;BME280;44536;47.474;19.056;2023-02-19T03:18:31;100543.88;;;10.51;75.05
58769;BME280;44536;47.474;19.056;2023-02-19T03:22:21;100550.25;;;10.49;75.38
58769;BME280;44536;47.474;19.056;2023-02-19T03:25:29;100549.50;;;10.47;75.74
58769;BME280;44536;47.474;19.056;2023-02-19T03:28:52;100553.59;;;10.40;76.10
58769;BME280;44536;47.474;19.056;2023-02-19T03:32:22;100565.91;;;10.28;76.65
58769;BME280;44536;47.474;19.056;2023-02-19T03:35:27;100553.84;;;10.24;75.50
58769;BME280;44536;47.474;19.056;2023-02-19T03:41:55;100547.06;;;10.07;77.02
58769;BME280;44536;47.474;19.056;2023-02-19T03:49:14;100551.91;;;10.13;75.88
58769;BME280;44536;47.474;19.056;2023-02-19T03:52:35;100558.41;;;9.96;76.45
58769;BME280;44536;47.474;19.056;2023-02-19T03:56:09;100560.03;;;9.86;76.60
58769;BME280;44536;47.474;19.056;2023-02-19T04:02:40;100538.72;;;9.88;76.35
58769;BME280;44536;47.474;19.056;2023-02-19T04:05:50;100542.37;;;10.11;75.44
58769;BME280;44536;47.474;19.056;2023-02-19T04:08:58;100542.91;;;10.28;73.75
58769;BME280;44536;47.474;19.056;2023-02-19T04:12:04;100541.66;;;10.21;74.42
58769;BME280;44536;47.474;19.056;2023-02-19T04:15:11;100550.44;;;10.09;74.66
58769;BME280;44536;47.474;19.056;2023-02-19T04:18:19;100561.03;;;10.09;74.44
58769;BME280;44536;47.474;19.056;2023-02-19T04:21:24;100557.84;;;10.17;73.96
58769;BME280;44536;47.474;19.056;2023-02-19T04:24:35;100555.31;;;10.15;73.88
58769;BME280;44536;47.474;19.056;2023-02-19T04:27:39;100552.78;;;10.14;73.37
58769;BME280;44536;47.474;19.056;2023-02-19T04:30:42;100547.47;;;10.26;72.99
58769;BME280;44536;47.474;19.056;2023-02-19T04:33:45;100541.97;;;10.17;73.56
58769;BME280;44536;47.474;19.056;2023-02-19T04:36:48;100547.16;;;10.06;73.62
58769;BME280;44536;47.474;19.056;2023-02-19T04:39:50;100545.16;;;10.22;72.83
58769;BME280;44536;47.474;19.056;2023-02-19T04:42:52;100544.84;;;10.01;73.64
58769;BME280;44536;47.474;19.056;2023-02-19T04:45:58;100540.50;;;10.00;73.62
58769;BME280;44536;47.474;19.056;2023-02-19T04:49:01;100539.34;;;9.91;74.36
58769;BME280;44536;47.474;19.056;2023-02-19T04:52:04;100537.53;;;9.92;73.84
58769;BME280;44536;47.474;19.056;2023-02-19T04:55:07;100550.03;;;9.90;74.46
58769;BME280;44536;47.474;19.056;2023-02-19T04:58:09;100552.78;;;10.01;74.88
58769;BME280;44536;47.474;19.056;2023-02-19T05:01:12;100552.94;;;9.87;76.37
58769;BME280;44536;47.474;19.056;2023-02-19T05:04:15;100545.31;;;9.70;79.01
58769;BME280;44536;47.474;19.056;2023-02-19T05:07:18;100540.75;;;9.59;79.64
58769;BME280;44536;47.474;19.056;2023-02-19T05:10:20;100542.44;;;9.47;81.02
58769;BME280;44536;47.474;19.056;2023-02-19T05:13:22;100550.50;;;9.33;82.59
58769;BME280;44536;47.474;19.056;2023-02-19T05:16:25;100553.66;;;9.25;83.29
58769;BME280;44536;47.474;19.056;2023-02-19T05:19:27;100559.06;;;9.24;83.37
58769;BME280;44536;47.474;19.056;2023-02-19T05:22:29;100555.03;;;9.31;83.19
58769;BME280;44536;47.474;19.056;2023-02-19T05:25:32;100549.00;;;9.29;83.13
58769;BME280;44536;47.474;19.056;2023-02-19T05:28:34;100549.97;;;9.28;83.42
58769;BME280;44536;47.474;19.056;2023-02-19T05:31:37;100550.06;;;9.39;82.92
58769;BME280;44536;47.474;19.056;2023-02-19T05:34:39;100550.38;;;9.47;83.15
58769;BME280;44536;47.474;19.056;2023-02-19T05:37:42;100541.81;;;9.56;82.38
58769;BME280;44536;47.474;19.056;2023-02-19T05:40:44;100541.19;;;9.53;82.73
58769;BME280;44536;47.474;19.056;2023-02-19T05:43:48;100538.09;;;9.46;83.37
58769;BME280;44536;47.474;19.056;2023-02-19T05:46:50;100531.53;;;9.39;84.00
58769;BME280;44536;47.474;19.056;2023-02-19T05:49:52;100528.78;;;9.28;85.32
58769;BME280;44536;47.474;19.056;2023-02-19T05:52:54;100540.09;;;9.17;86.08
58769;BME280;44536;47.474;19.056;2023-02-19T05:55:57;100555.13;;;9.17;86.50
58769;BME280;44536;47.474;19.056;2023-02-19T05:59:02;100563.25;;;9.14;87.32
58769;BME280;44536;47.474;19.056;2023-02-19T06:02:06;100562.72;;;9.09;88.28
58769;BME280;44536;47.474;19.056;2023-02-19T06:05:09;100561.97;;;9.07;88.62
58769;BME280;44536;47.474;19.056;2023-02-19T06:08:12;100562.19;;;9.04;89.07
58769;BME280;44536;47.474;19.056;2023-02-19T06:11:15;100564.31;;;9.11;89.18
58769;BME280;44536;47.474;19.056;2023-02-19T06:14:17;100576.34;;;9.03;89.97
58769;BME280;44536;47.474;19.056;2023-02-19T06:17:20;100569.47;;;9.00;89.90
58769;BME280;44536;47.474;19.056;2023-02-19T06:20:22;100559.94;;;8.98;89.91
58769;BME280;44536;47.474;19.056;2023-02-19T06:23:28;100558.22;;;8.96;90.03
58769;BME280;44536;47.474;19.056;2023-02-19T06:26:30;100547.31;;;8.88;90.61
58769;BME280;44536;47.474;19.056;2023-02-19T06:29:33;100546.16;;;8.92;90.08
58769;BME280;44536;47.474;19.056;2023-02-19T06:32:35;100547.50;;;8.85;90.57
58769;BME280;44536;47.474;19.056;2023-02-19T06:35:38;100535.87;;;8.75;91.40
58769;BME280;44536;47.474;19.056;2023-02-19T06:38:40;100543.25;;;8.70;92.05
58769;BME280;44536;47.474;19.056;2023-02-19T06:41:43;100538.72;;;8.72;92.42
58769;BME280;44536;47.474;19.056;2023-02-19T06:44:45;100532.97;;;8.66;93.26
58769;BME280;44536;47.474;19.056;2023-02-19T06:47:48;100530.53;;;8.62;93.77
58769;BME280;44536;47.474;19.056;2023-02-19T06:50:50;100534.69;;;8.67;93.69
58769;BME280;44536;47.474;19.056;2023-02-19T06:53:52;100536.88;;;8.60;94.22
58769;BME280;44536;47.474;19.056;2023-02-19T06:56:54;100541.84;;;8.65;93.97
58769;BME280;44536;47.474;19.056;2023-02-19T07:00:00;100539.75;;;8.70;94.15
58769;BME280;44536;47.474;19.056;2023-02-19T07:03:02;100536.22;;;8.56;94.87
58769;BME280;44536;47.474;19.056;2023-02-19T07:06:07;100530.62;;;8.61;94.64
58769;BME280;44536;47.474;19.056;2023-02-19T07:09:10;100531.97;;;8.54;94.48
58769;BME280;44536;47.474;19.056;2023-02-19T07:12:12;100545.78;;;8.45;93.96
58769;BME280;44536;47.474;19.056;2023-02-19T07:15:14;100548.06;;;8.37;93.92
58769;BME280;44536;47.474;19.056;2023-02-19T07:18:17;100556.34;;;8.45;93.63
58769;BME280;44536;47.474;19.056;2023-02-19T07:21:20;100555.44;;;8.32;93.99
58769;BME280;44536;47.474;19.056;2023-02-19T07:24:22;100566.66;;;8.35;93.79
58769;BME280;44536;47.474;19.056;2023-02-19T07:27:24;100554.16;;;8.51;93.20
58769;BME280;44536;47.474;19.056;2023-02-19T07:30:27;100544.78;;;8.60;92.24
58769;BME280;44536;47.474;19.056;2023-02-19T07:33:29;100544.91;;;8.58;92.08
58769;BME280;44536;47.474;19.056;2023-02-19T07:36:32;100540.31;;;8.75;90.65
58769;BME280;44536;47.474;19.056;2023-02-19T07:39:34;100541.66;;;8.68;90.46
58769;BME280;44536;47.474;19.056;2023-02-19T07:42:36;100530.78;;;8.72;89.49
58769;BME280;44536;47.474;19.056;2023-02-19T07:45:39;100527.44;;;8.56;89.27
58769;BME280;44536;47.474;19.056;2023-02-19T07:48:42;100525.84;;;8.53;89.46
58769;BME280;44536;47.474;19.056;2023-02-19T07:51:45;100536.06;;;8.72;88.46
58769;BME280;44536;47.474;19.056;2023-02-19T07:54:48;100537.03;;;8.71;88.66
58769;BME280;44536;47.474;19.056;2023-02-19T07:57:50;100547.59;;;8.71;88.38
58769;BME280;44536;47.474;19.056;2023-02-19T08:00:52;100545.06;;;8.70;88.56
58769;BME280;44536;47.474;19.056;2023-02-19T08:03:55;100550.34;;;8.70;88.87
58769;BME280;44536;47.474;19.056;2023-02-19T08:06:57;100565.16;;;8.72;89.06
58769;BME280;44536;47.474;19.056;2023-02-19T08:10:00;100552.88;;;8.71;89.99
58769;BME280;44536;47.474;19.056;2023-02-19T08:13:21;100565.19;;;8.58;92.17
58769;BME280;44536;47.474;19.056;2023-02-19T08:16:24;100559.16;;;8.56;94.67
58769;BME280;44536;47.474;19.056;2023-02-19T08:19:43;100571.34;;;8.44;95.41
58769;BME280;44536;47.474;19.056;2023-02-19T08:22:46;100568.28;;;8.23;99.34
58769;BME280;44536;47.474;19.056;2023-02-19T08:25:49;100563.94;;;8.22;100.00
58769;BME280;44536;47.474;19.056;2023-02-19T08:28:52;100575.44;;;8.21;100.00
58769;BME280;44536;47.474;19.056;2023-02-19T08:31:54;100579.97;;;8.19;100.00
58769;BME280;44536;47.474;19.056;2023-02-19T08:34:57;100587.72;;;8.22;100.00
58769;BME280;44536;47.474;19.056;2023-02-19T08:37:59;100576.00;;;8.41;100.00
58769;BME280;44536;47.474;19.056;2023-02-19T08:41:06;100560.75;;;8.58;100.00
58769;BME280;44536;47.474;19.056;2023-02-19T08:44:10;100561.25;;;8.78;100.00
58769;BME280;44536;47.474;19.056;2023-02-19T08:47:12;100551.50;;;9.05;100.00
58769;BME280;44536;47.474;19.056;2023-02-19T08:50:14;100552.09;;;9.36;100.00
58769;BME280;44536;47.474;19.056;2023-02-19T08:53:17;100552.37;;;9.44;100.00
58769;BME280;44536;47.474;19.056;2023-02-19T08:56:19;100558.94;;;9.38;100.00
58769;BME280;44536;47.474;19.056;2023-02-19T08:59:22;100546.66;;;9.37;100.00
58769;BME280;44536;47.474;19.056;2023-02-19T09:02:24;100553.25;;;9.57;100.00
58769;BME280;44536;47.474;19.056;2023-02-19T09:05:27;100555.16;;;9.68;100.00
58769;BME280;44536;47.474;19.056;2023-02-19T09:08:29;100553.66;;;9.89;100.00
58769;BME280;44536;47.474;19.056;2023-02-19T09:11:32;100548.75;;;9.95;100.00
58769;BME280;44536;47.474;19.056;2023-02-19T09:14:34;100559.78;;;9.89;100.00
58769;BME280;44536;47.474;19.056;2023-02-19T09:17:37;100548.28;;;9.65;100.00
58769;BME280;44536;47.474;19.056;2023-02-19T09:20:40;100554.53;;;9.64;100.00
58769;BME280;44536;47.474;19.056;2023-02-19T09:23:42;100543.81;;;9.40;100.00
58769;BME280;44536;47.474;19.056;2023-02-19T09:26:48;100548.91;;;9.31;100.00
58769;BME280;44536;47.474;19.056;2023-02-19T09:29:50;100546.88;;;9.21;100.00
58769;BME280;44536;47.474;19.056;2023-02-19T09:32:53;100547.84;;;9.33;100.00
58769;BME280;44536;47.474;19.056;2023-02-19T09:35:58;100552.59;;;9.41;100.00
58769;BME280;44536;47.474;19.056;2023-02-19T09:39:01;100544.34;;;9.45;100.00
58769;BME280;44536;47.474;19.056;2023-02-19T09:42:18;100537.78;;;9.38;100.00
58769;BME280;44536;47.474;19.056;2023-02-19T09:45:23;100531.13;;;9.33;100.00
58769;BME280;44536;47.474;19.056;2023-02-19T09:48:27;100531.97;;;9.46;100.00
58769;BME280;44536;47.474;19.056;2023-02-19T09:51:31;100539.47;;;9.65;100.00
58769;BME280;44536;47.474;19.056;2023-02-19T09:54:36;100525.00;;;10.07;100.00
58769;BME280;44536;47.474;19.056;2023-02-19T09:57:39;100530.00;;;10.11;100.00
58769;BME280;44536;47.474;19.056;2023-02-19T10:00:46;100525.25;;;10.40;100.00
58769;BME280;44536;47.474;19.056;2023-02-19T10:03:50;100526.28;;;10.50;100.00
58769;BME280;44536;47.474;19.056;2023-02-19T10:06:53;100509.00;;;10.45;100.00
58769;BME280;44536;47.474;19.056;2023-02-19T10:10:17;100512.06;;;10.75;100.00
58769;BME280;44536;47.474;19.056;2023-02-19T10:13:28;100495.13;;;11.69;96.83
58769;BME280;44536;47.474;19.056;2023-02-19T10:16:32;100483.84;;;12.96;89.51
58769;BME280;44536;47.474;19.056;2023-02-19T10:19:34;100466.94;;;13.79;85.04
58769;BME280;44536;47.474;19.056;2023-02-19T10:22:37;100476.97;;;14.94;80.60
58769;BME280;44536;47.474;19.056;2023-02-19T10:25:46;100479.72;;;15.31;74.52
58769;BME280;44536;47.474;19.056;2023-02-19T10:28:50;100466.72;;;16.38;72.08
58769;BME280;44536;47.474;19.056;2023-02-19T10:35:15;100461.38;;;16.38;68.41
58769;BME280;44536;47.474;19.056;2023-02-19T10:38:19;100449.38;;;16.60;69.43
58769;BME280;44536;47.474;19.056;2023-02-19T10:41:26;100457.25;;;16.61;66.33
58769;BME280;44536;47.474;19.056;2023-02-19T10:44:35;100438.47;;;15.80;68.93
58769;BME280;44536;47.474;19.056;2023-02-19T10:47:45;100438.47;;;15.43;72.46
58769;BME280;44536;47.474;19.056;2023-02-19T10:50:50;100431.81;;;15.94;71.42
58769;BME280;44536;47.474;19.056;2023-02-19T10:54:16;100422.28;;;15.82;70.54
58769;BME280;44536;47.474;19.056;2023-02-19T10:57:24;100414.03;;;15.75;70.18
58769;BME280;44536;47.474;19.056;2023-02-19T11:00:31;100393.91;;;16.16;65.44
58769;BME280;44536;47.474;19.056;2023-02-19T11:03:33;100395.06;;;16.14;65.16
58769;BME280;44536;47.474;19.056;2023-02-19T11:06:35;100392.87;;;16.09;65.57
58769;BME280;44536;47.474;19.056;2023-02-19T11:09:39;100382.66;;;16.13;63.70
58769;BME280;44536;47.474;19.056;2023-02-19T11:12:46;100362.09;;;16.67;63.66
58769;BME280;44536;47.474;19.056;2023-02-19T11:15:52;100378.31;;;16.65;60.00
58769;BME280;44536;47.474;19.056;2023-02-19T11:18:55;100370.19;;;16.75;60.16
58769;BME280;44536;47.474;19.056;2023-02-19T11:21:59;100361.25;;;17.44;57.35
58769;BME280;44536;47.474;19.056;2023-02-19T11:34:26;100332.28;;;18.30;50.11
58769;BME280;44536;47.474;19.056;2023-02-19T11:37:31;100347.22;;;18.33;49.42
58769;BME280;44536;47.474;19.056;2023-02-19T11:40:39;100346.22;;;18.74;49.23
58769;BME280;44536;47.474;19.056;2023-02-19T11:47:41;100325.53;;;19.55;46.14
58769;BME280;44536;47.474;19.056;2023-02-19T11:51:00;100303.00;;;19.56;45.31
58769;BME280;44536;47.474;19.056;2023-02-19T11:57:34;100313.03;;;19.70;44.78
58769;BME280;44536;47.474;19.056;2023-02-19T12:00:48;100329.63;;;19.34;45.63
58769;BME280;44536;47.474;19.056;2023-02-19T12:07:52;100291.47;;;18.92;46.68
58769;BME280;44536;47.474;19.056;2023-02-19T12:28:22;100293.75;;;19.11;44.86
58769;BME280;44536;47.474;19.056;2023-02-19T12:38:44;100285.16;;;19.86;42.58
58769;BME280;44536;47.474;19.056;2023-02-19T12:45:22;100273.91;;;19.20;44.26
58769;BME280;44536;47.474;19.056;2023-02-19T12:51:48;100274.78;;;19.43;43.92
58769;BME280;44536;47.474;19.056;2023-02-19T12:54:53;100312.69;;;18.62;46.96
58769;BME280;44536;47.474;19.056;2023-02-19T12:58:01;100332.44;;;18.94;46.50
58769;BME280;44536;47.474;19.056;2023-02-19T13:01:06;100343.81;;;19.12;50.25
58769;BME280;44536;47.474;19.056;2023-02-19T13:04:25;100357.25;;;15.27;60.90
58769;BME280;44536;47.474;19.056;2023-02-19T13:07:49;100358.19;;;12.30;78.36
58769;BME280;44536;47.474;19.056;2023-02-19T13:10:58;100337.28;;;11.28;86.31
58769;BME280;44536;47.474;19.056;2023-02-19T13:14:27;100316.53;;;10.77;89.40
58769;BME280;44536;47.474;19.056;2023-02-19T13:17:48;100314.41;;;10.47;94.93
58769;BME280;44536;47.474;19.056;2023-02-19T13:20:51;100292.88;;;10.63;93.39
58769;BME280;44536;47.474;19.056;2023-02-19T13:23:56;100286.97;;;10.93;89.82
58769;BME280;44536;47.474;19.056;2023-02-19T13:30:31;100297.78;;;12.21;85.25
58769;BME280;44536;47.474;19.056;2023-02-19T13:36:38;100285.44;;;14.30;76.22
58769;BME280;44536;47.474;19.056;2023-02-19T13:40:03;100274.87;;;15.49;68.16
58769;BME280;44536;47.474;19.056;2023-02-19T13:43:22;100275.78;;;15.85;67.27
58769;BME280;44536;47.474;19.056;2023-02-19T13:46:33;100286.44;;;16.21;60.49
58769;BME280;44536;47.474;19.056;2023-02-19T13:49:39;100302.47;;;14.85;63.03
58769;BME280;44536;47.474;19.056;2023-02-19T13:52:43;100324.16;;;14.24;68.29
58769;BME280;44536;47.474;19.056;2023-02-19T13:55:49;100327.34;;;13.70;73.89
58769;BME280;44536;47.474;19.056;2023-02-19T13:59:32;100337.69;;;12.42;74.04
58769;BME280;44536;47.474;19.056;2023-02-19T14:02:36;100386.66;;;12.07;77.38
58769;BME280;44536;47.474;19.056;2023-02-19T14:06:09;100405.63;;;10.80;85.81
58769;BME280;44536;47.474;19.056;2023-02-19T14:12:39;100383.22;;;9.41;98.04
58769;BME280;44536;47.474;19.056;2023-02-19T14:15:42;100378.41;;;9.22;100.00
58769;BME280;44536;47.474;19.056;2023-02-19T14:18:50;100397.88;;;9.21;100.00
58769;BME280;44536;47.474;19.056;2023-02-19T14:21:53;100409.50;;;9.18;100.00
58769;BME280;44536;47.474;19.056;2023-02-19T14:24:57;100415.12;;;9.26;100.00
58769;BME280;44536;47.474;19.056;2023-02-19T14:28:03;100419.03;;;9.21;100.00
58769;BME280;44536;47.474;19.056;2023-02-19T14:34:17;100431.22;;;9.23;100.00
58769;BME280;44536;47.474;19.056;2023-02-19T14:37:24;100442.44;;;9.27;100.00
58769;BME280;44536;47.474;19.056;2023-02-19T14:40:33;100455.72;;;9.63;100.00
58769;BME280;44536;47.474;19.056;2023-02-19T14:43:38;100451.81;;;9.93;100.00
58769;BME280;44536;47.474;19.056;2023-02-19T14:46:57;100466.50;;;10.22;93.60
58769;BME280;44536;47.474;19.056;2023-02-19T14:50:08;100463.28;;;10.30;94.38
58769;BME280;44536;47.474;19.056;2023-02-19T14:53:14;100468.06;;;10.49;91.96
58769;BME280;44536;47.474;19.056;2023-02-19T14:56:21;100466.09;;;10.64;88.89
58769;BME280;44536;47.474;19.056;2023-02-19T14:59:29;100460.66;;;10.65;89.75
58769;BME280;44536;47.474;19.056;2023-02-19T15:02:31;100454.03;;;10.59;89.50
58769;BME280;44536;47.474;19.056;2023-02-19T15:05:35;100458.03;;;10.41;89.93
58769;BME280;44536;47.474;19.056;2023-02-19T15:08:42;100458.03;;;10.41;91.31
58769;BME280;44536;47.474;19.056;2023-02-19T15:11:46;100463.91;;;10.34;90.66
58769;BME280;44536;47.474;19.056;2023-02-19T15:14:49;100472.31;;;10.15;91.78
58769;BME280;44536;47.474;19.056;2023-02-19T15:17:54;100485.53;;;9.91;92.50
58769;BME280;44536;47.474;19.056;2023-02-19T15:21:02;100484.78;;;9.89;93.40
58769;BME280;44536;47.474;19.056;2023-02-19T15:24:06;100493.25;;;9.94;88.99
58769;BME280;44536;47.474;19.056;2023-02-19T15:27:21;100493.56;;;9.89;91.91
58769;BME280;44536;47.474;19.056;2023-02-19T15:30:27;100497.53;;;9.84;91.30
58769;BME280;44536;47.474;19.056;2023-02-19T15:33:31;100501.63;;;9.88;90.72
58769;BME280;44536;47.474;19.056;2023-02-19T15:36:33;100484.19;;;9.85;89.00
58769;BME280;44536;47.474;19.056;2023-02-19T15:39:44;100490.53;;;9.83;88.64
58769;BME280;44536;47.474;19.056;2023-02-19T15:42:48;100480.16;;;9.80;87.57
58769;BME280;44536;47.474;19.056;2023-02-19T15:45:54;100485.25;;;9.83;86.88
58769;BME280;44536;47.474;19.056;2023-02-19T15:49:08;100484.19;;;9.85;85.28
58769;BME280;44536;47.474;19.056;2023-02-19T15:52:29;100481.97;;;9.79;86.62
58769;BME280;44536;47.474;19.056;2023-02-19T15:55:43;100473.38;;;9.76;85.92
58769;BME280;44536;47.474;19.056;2023-02-19T15:58:53;100479.97;;;9.70;85.65
58769;BME280;44536;47.474;19.056;2023-02-19T16:01:56;100490.75;;;9.67;86.30
58769;BME280;44536;47.474;19.056;2023-02-19T16:05:10;100482.72;;;9.69;84.98
58769;BME280;44536;47.474;19.056;2023-02-19T16:08:16;100491.72;;;9.66;84.96
58769;BME280;44536;47.474;19.056;2023-02-19T16:17:33;100504.53;;;9.72;83.97
58769;BME280;44536;47.474;19.056;2023-02-19T16:20:35;100512.16;;;9.77;82.97
58769;BME280;44536;47.474;19.056;2023-02-19T16:23:45;100515.53;;;9.79;83.15
58769;BME280;44536;47.474;19.056;2023-02-19T16:26:49;100528.91;;;9.77;82.98
58769;BME280;44536;47.474;19.056;2023-02-19T16:29:52;100524.44;;;9.78;83.81
58769;BME280;44536;47.474;19.056;2023-02-19T16:36:37;100545.09;;;9.73;85.06
58769;BME280;44536;47.474;19.056;2023-02-19T16:39:42;100549.03;;;9.80;84.17
58769;BME280;44536;47.474;19.056;2023-02-19T16:45:50;100551.34;;;9.72;86.58
58769;BME280;44536;47.474;19.056;2023-02-19T16:48:53;100568.50;;;9.66;89.43
58769;BME280;44536;47.474;19.056;2023-02-19T16:51:57;100564.69;;;9.32;93.62
58769;BME280;44536;47.474;19.056;2023-02-19T16:55:01;100565.16;;;9.12;94.46
58769;BME280;44536;47.474;19.056;2023-02-19T16:58:04;100546.38;;;8.89;93.32
58769;BME280;44536;47.474;19.056;2023-02-19T17:01:07;100552.69;;;8.74;95.23
58769;BME280;44536;47.474;19.056;2023-02-19T17:04:10;100538.37;;;8.64;93.01
58769;BME280;44536;47.474;19.056;2023-02-19T17:07:15;100544.78;;;8.60;91.36
58769;BME280;44536;47.474;19.056;2023-02-19T17:10:22;100552.22;;;8.68;89.51
58769;BME280;44536;47.474;19.056;2023-02-19T17:13:25;100561.22;;;8.65;88.75
58769;BME280;44536;47.474;19.056;2023-02-19T17:16:30;100570.53;;;8.71;88.04
58769;BME280;44536;47.474;19.056;2023-02-19T17:19:35;100591.78;;;8.69;88.53
58769;BME280;44536;47.474;19.056;2023-02-19T17:22:37;100590.94;;;8.69;88.49
58769;BME280;44536;47.474;19.056;2023-02-19T17:25:41;100574.62;;;8.62;88.39
58769;BME280;44536;47.474;19.056;2023-02-19T17:28:43;100583.03;;;8.54;88.47
58769;BME280;44536;47.474;19.056;2023-02-19T17:31:45;100566.78;;;8.60;87.21
58769;BME280;44536;47.474;19.056;2023-02-19T17:34:48;100582.56;;;8.62;85.08
58769;BME280;44536;47.474;19.056;2023-02-19T17:37:51;100581.59;;;8.63;84.11
58769;BME280;44536;47.474;19.056;2023-02-19T17:40:54;100593.88;;;8.64;82.44
58769;BME280;44536;47.474;19.056;2023-02-19T17:43:57;100597.50;;;8.49;83.88
58769;BME280;44536;47.474;19.056;2023-02-19T17:47:00;100603.53;;;8.51;83.66
58769;BME280;44536;47.474;19.056;2023-02-19T17:50:03;100625.72;;;8.48;83.02
58769;BME280;44536;47.474;19.056;2023-02-19T17:53:05;100626.56;;;8.49;82.14